createdAt,value
2019-05-19T00:01:03.929Z,11.93
2019-05-19T00:03:32.562Z,13.90
2019-05-19T00:06:01.351Z,13.13
2019-05-19T00:08:30.030Z,18.07
2019-05-19T00:10:59.001Z,16.03
2019-05-19T00:13:27.647Z,13.23
2019-05-19T00:15:56.669Z,13.43
2019-05-19T00:18:25.273Z,12.57
2019-05-19T00:20:54.022Z,16.60
2019-05-19T00:23:22.830Z,19.00
2019-05-19T00:25:51.878Z,17.50
2019-05-19T00:28:20.734Z,13.57
2019-05-19T00:30:49.662Z,14.87
2019-05-19T00:33:18.347Z,15.07
2019-05-19T00:35:47.021Z,16.77
2019-05-19T00:38:15.590Z,15.40
2019-05-19T00:40:44.423Z,16.60
2019-05-19T00:43:13.433Z,15.10
2019-05-19T00:45:42.254Z,18.50
2019-05-19T00:48:11.037Z,17.07
2019-05-19T00:50:39.770Z,18.97
2019-05-19T00:53:08.694Z,19.73
2019-05-19T00:55:37.754Z,14.00
2019-05-19T00:58:07.119Z,14.80
2019-05-19T01:00:36.040Z,16.90
2019-05-19T01:03:04.787Z,20.17
2019-05-19T01:05:33.497Z,18.13
2019-05-19T01:08:02.280Z,20.80
2019-05-19T01:10:31.132Z,20.87
2019-05-19T01:13:00.106Z,19.87
2019-05-19T01:15:28.880Z,17.27
2019-05-19T01:17:57.632Z,20.13
2019-05-19T01:20:26.402Z,16.70
2019-05-19T01:22:55.109Z,16.70
2019-05-19T01:25:23.898Z,17.57
2019-05-19T01:27:52.582Z,16.90
2019-05-19T01:30:21.743Z,19.83
2019-05-19T01:32:50.754Z,21.53
2019-05-19T01:35:19.771Z,20.40
2019-05-19T01:37:48.437Z,17.00
2019-05-19T01:40:18.766Z,21.93
2019-05-19T01:42:47.536Z,18.33
2019-05-19T01:45:16.833Z,20.00
2019-05-19T01:47:45.563Z,19.47
2019-05-19T01:50:18.077Z,19.83
2019-05-19T01:52:44.628Z,22.23
2019-05-19T01:55:13.716Z,22.87
2019-05-19T01:57:42.466Z,23.20
2019-05-19T02:00:12.737Z,19.70
2019-05-19T02:02:41.551Z,24.17
2019-05-19T02:05:10.674Z,23.77
2019-05-19T02:07:39.425Z,21.13
2019-05-19T02:10:09.440Z,27.47
2019-05-19T02:12:38.200Z,21.20
2019-05-19T02:15:07.912Z,21.83
2019-05-19T02:17:36.612Z,26.70
2019-05-19T02:20:07.712Z,29.50
2019-05-19T02:22:36.759Z,25.40
2019-05-19T02:25:08.853Z,26.23
2019-05-19T02:27:37.637Z,27.70
2019-05-19T02:30:09.677Z,25.83
2019-05-19T02:32:38.488Z,22.20
2019-05-19T02:35:07.774Z,23.80
2019-05-19T02:37:36.532Z,24.50
2019-05-19T02:40:09.568Z,32.10
2019-05-19T02:42:43.207Z,26.73
2019-05-19T02:45:12.762Z,29.00
2019-05-19T02:47:43.932Z,26.53
2019-05-19T02:50:13.410Z,27.37
2019-05-19T02:52:43.985Z,27.40
2019-05-19T02:55:13.011Z,25.30
2019-05-19T02:57:43.407Z,30.20
2019-05-19T03:00:12.854Z,25.97
2019-05-19T03:02:41.769Z,25.73
2019-05-19T03:05:15.658Z,23.83
2019-05-19T03:07:44.404Z,23.47
2019-05-19T03:10:13.310Z,25.20
2019-05-19T03:12:42.026Z,22.80
2019-05-19T03:15:10.949Z,30.73
2019-05-19T03:17:39.760Z,25.43
2019-05-19T03:20:08.555Z,26.73
2019-05-19T03:22:37.330Z,27.02
2019-05-19T03:25:07.532Z,25.43
2019-05-19T03:27:36.366Z,25.37
2019-05-19T03:30:25.669Z,27.67
2019-05-19T03:33:17.944Z,29.30
2019-05-19T03:35:47.008Z,27.57
2019-05-19T03:38:15.725Z,32.03
2019-05-19T03:40:44.466Z,29.23
2019-05-19T03:43:13.258Z,30.73
2019-05-19T03:45:42.110Z,28.50
2019-05-19T03:48:11.050Z,26.43
2019-05-19T03:50:39.863Z,30.13
2019-05-19T03:53:09.838Z,31.13
2019-05-19T03:55:38.678Z,27.77
2019-05-19T03:58:07.537Z,28.53
2019-05-19T04:00:36.510Z,26.97
2019-05-19T04:03:05.340Z,23.38
2019-05-19T04:05:34.097Z,22.87
2019-05-19T04:08:03.149Z,28.50
2019-05-19T04:10:31.828Z,28.20
2019-05-19T04:13:00.561Z,25.93
2019-05-19T04:15:29.269Z,23.23
2019-05-19T04:17:58.109Z,24.13
2019-05-19T04:20:26.819Z,24.80
2019-05-19T04:22:55.834Z,22.27
2019-05-19T04:25:24.627Z,25.83
2019-05-19T04:27:53.716Z,24.67
2019-05-19T04:30:22.463Z,27.33
2019-05-19T04:32:51.092Z,25.57
2019-05-19T04:35:19.879Z,25.43
2019-05-19T04:37:48.655Z,20.10
2019-05-19T04:40:17.430Z,22.73
2019-05-19T04:42:46.252Z,21.17
2019-05-19T04:45:15.332Z,21.73
2019-05-19T04:47:44.191Z,23.27
2019-05-19T04:50:13.281Z,23.10
2019-05-19T04:52:42.122Z,21.63
2019-05-19T04:55:11.098Z,23.70
2019-05-19T04:57:39.809Z,21.13
2019-05-19T05:00:08.724Z,19.67
2019-05-19T05:28:51.682Z,19.57
2019-05-19T05:31:28.435Z,22.47
2019-05-19T05:34:03.327Z,21.17
2019-05-19T05:36:37.969Z,19.07
2019-05-19T05:39:18.441Z,19.87
2019-05-19T05:41:55.028Z,19.17
2019-05-19T05:44:42.856Z,17.52
2019-05-19T05:47:10.665Z,22.65
2019-05-19T05:50:00.611Z,18.30
2019-05-19T05:55:42.089Z,15.00
2019-05-19T05:58:12.868Z,14.03
2019-05-19T06:00:50.075Z,14.07
2019-05-19T06:03:22.655Z,15.63
2019-05-19T06:05:59.215Z,13.13
2019-05-19T06:08:25.466Z,16.13
2019-05-19T06:10:56.886Z,16.30
2019-05-19T06:13:25.570Z,17.97
2019-05-19T06:15:54.318Z,15.90
2019-05-19T06:18:23.089Z,13.78
2019-05-19T06:21:20.462Z,13.18
2019-05-19T06:23:49.310Z,13.62
2019-05-19T06:26:18.227Z,14.47
2019-05-19T06:28:47.019Z,14.30
2019-05-19T06:31:15.749Z,12.88
2019-05-19T06:33:44.558Z,12.78
2019-05-19T06:36:13.440Z,12.03
2019-05-19T06:38:42.408Z,12.88
2019-05-19T06:41:11.149Z,12.37
2019-05-19T06:43:40.055Z,14.33
2019-05-19T06:46:08.840Z,11.30
2019-05-19T06:48:37.526Z,11.67
2019-05-19T06:51:06.168Z,15.03
2019-05-19T06:53:34.867Z,13.55
2019-05-19T06:56:03.620Z,12.07
2019-05-19T06:58:50.701Z,14.20
2019-05-19T07:01:19.406Z,12.45
2019-05-19T07:03:48.393Z,12.90
2019-05-19T07:06:20.435Z,15.40
2019-05-19T07:08:49.492Z,12.37
2019-05-19T07:11:19.273Z,11.83
2019-05-19T07:13:47.939Z,14.10
2019-05-19T07:16:16.723Z,12.47
2019-05-19T07:19:04.887Z,12.37
2019-05-19T07:21:34.882Z,16.67
2019-05-19T07:24:03.726Z,12.23
2019-05-19T07:26:32.763Z,11.45
2019-05-19T07:29:02.348Z,14.35
2019-05-19T07:31:31.095Z,12.93
2019-05-19T07:34:00.157Z,13.05
2019-05-19T07:36:28.870Z,13.58
2019-05-19T07:38:57.821Z,12.37
2019-05-19T07:41:26.973Z,10.25
2019-05-19T07:43:55.768Z,9.45
2019-05-19T07:46:24.464Z,10.43
2019-05-19T07:48:53.464Z,12.98
2019-05-19T07:51:22.517Z,10.75
2019-05-19T07:53:51.397Z,10.05
2019-05-19T07:56:20.326Z,11.22
2019-05-19T07:58:49.342Z,11.35
2019-05-19T08:01:18.437Z,9.65
2019-05-19T08:03:49.989Z,13.93
2019-05-19T08:06:19.597Z,11.38
2019-05-19T08:08:56.554Z,10.45
2019-05-19T08:11:25.331Z,9.63
2019-05-19T08:13:54.295Z,9.35
2019-05-19T08:16:23.036Z,9.08
2019-05-19T08:18:59.206Z,9.80
2019-05-19T08:21:27.977Z,8.15
2019-05-19T08:24:01.562Z,9.18
2019-05-19T08:26:27.353Z,12.95
2019-05-19T08:28:56.397Z,11.00
2019-05-19T08:31:25.769Z,8.85
2019-05-19T08:33:54.456Z,8.83
2019-05-19T08:36:23.241Z,9.43
2019-05-19T08:38:51.982Z,11.28
2019-05-19T08:41:20.713Z,10.28
2019-05-19T08:43:49.453Z,9.95
2019-05-19T08:46:18.284Z,11.05
2019-05-19T08:48:47.046Z,9.83
2019-05-19T08:51:15.821Z,10.13
2019-05-19T08:53:44.543Z,9.15
2019-05-19T08:56:13.457Z,12.23
2019-05-19T08:58:42.401Z,9.70
2019-05-19T09:01:11.145Z,9.55
2019-05-19T09:03:39.956Z,8.53
2019-05-19T09:06:08.818Z,11.08
2019-05-19T09:08:37.643Z,9.93
2019-05-19T09:11:06.371Z,8.83
2019-05-19T09:13:34.961Z,9.70
2019-05-19T09:16:04.736Z,13.05
2019-05-19T09:18:33.343Z,9.55
2019-05-19T09:21:02.045Z,8.58
2019-05-19T09:23:30.992Z,8.63
2019-05-19T09:25:59.649Z,9.20
2019-05-19T09:28:28.485Z,10.48
2019-05-19T09:30:57.342Z,7.90
2019-05-19T09:33:26.074Z,13.10
2019-05-19T09:35:54.802Z,8.40
2019-05-19T09:38:23.799Z,7.60
2019-05-19T09:40:52.410Z,7.95
2019-05-19T09:43:21.131Z,8.05
2019-05-19T09:45:49.905Z,9.53
2019-05-19T09:48:18.985Z,11.35
2019-05-19T09:50:47.966Z,7.45
2019-05-19T09:53:16.559Z,12.80
2019-05-19T09:55:45.400Z,9.78
2019-05-19T09:58:17.114Z,8.28
2019-05-19T10:00:45.464Z,11.03
2019-05-19T10:03:15.123Z,9.08
2019-05-19T10:05:43.810Z,9.15
2019-05-19T10:08:12.587Z,8.50
2019-05-19T10:10:57.913Z,11.35
2019-05-19T10:13:26.721Z,9.30
2019-05-19T10:16:03.232Z,7.08
2019-05-19T10:18:35.536Z,8.10
2019-05-19T10:21:04.275Z,7.58
2019-05-19T10:23:33.065Z,7.62
2019-05-19T10:26:01.780Z,8.28
2019-05-19T10:28:30.696Z,6.85
2019-05-19T10:30:59.386Z,7.22
2019-05-19T10:33:28.156Z,8.28
2019-05-19T10:35:57.042Z,7.75
2019-05-19T10:38:25.877Z,9.23
2019-05-19T10:40:54.632Z,7.58
2019-05-19T10:43:23.338Z,8.43
2019-05-19T10:45:53.730Z,8.55
2019-05-19T10:48:22.404Z,7.50
2019-05-19T10:50:51.169Z,11.38
2019-05-19T10:53:19.895Z,8.20
2019-05-19T10:55:48.759Z,12.10
2019-05-19T10:58:17.541Z,7.62
2019-05-19T11:00:46.298Z,7.30
2019-05-19T11:03:14.992Z,8.40
2019-05-19T11:05:43.714Z,7.42
2019-05-19T11:08:12.378Z,13.22
2019-05-19T11:10:41.400Z,8.55
2019-05-19T11:13:10.141Z,8.73
2019-05-19T11:15:38.832Z,7.30
2019-05-19T11:18:07.509Z,6.45
2019-05-19T11:20:36.234Z,8.10
2019-05-19T11:23:05.078Z,7.35
2019-05-19T11:25:34.546Z,9.50
2019-05-19T11:28:03.512Z,8.45
2019-05-19T11:30:32.605Z,7.28
2019-05-19T11:33:01.372Z,8.08
2019-05-19T11:35:30.051Z,6.53
2019-05-19T11:37:58.825Z,7.05
2019-05-19T11:40:27.572Z,8.13
2019-05-19T11:42:56.386Z,8.58
2019-05-19T11:45:25.320Z,9.98
2019-05-19T11:47:54.092Z,7.20
2019-05-19T11:50:22.980Z,8.25
2019-05-19T11:52:51.863Z,9.28
2019-05-19T11:55:20.641Z,7.58
2019-05-19T11:57:49.578Z,7.10
2019-05-19T12:00:19.647Z,10.40
2019-05-19T12:02:48.450Z,15.90
2019-05-19T12:05:19.854Z,11.20
2019-05-19T12:07:48.461Z,11.20
2019-05-19T12:10:17.528Z,12.23
2019-05-19T12:12:46.230Z,12.25
2019-05-19T12:15:16.271Z,12.90
2019-05-19T12:17:44.965Z,11.20
2019-05-19T12:20:13.885Z,12.35
2019-05-19T12:22:42.556Z,10.25
2019-05-19T12:25:12.890Z,10.25
2019-05-19T12:27:43.390Z,11.60
2019-05-19T12:30:15.250Z,9.00
2019-05-19T12:32:43.906Z,9.18
2019-05-19T12:35:12.684Z,8.58
2019-05-19T12:37:41.558Z,8.85
2019-05-19T12:40:11.926Z,9.18
2019-05-19T12:42:40.822Z,8.63
2019-05-19T12:45:10.670Z,10.20
2019-05-19T12:47:39.337Z,10.95
2019-05-19T12:50:09.565Z,7.55
2019-05-19T12:52:38.436Z,9.28
2019-05-19T12:55:07.736Z,10.20
2019-05-19T12:57:36.294Z,9.30
2019-05-19T13:00:06.301Z,9.18
2019-05-19T13:02:37.976Z,8.95
2019-05-19T13:05:06.562Z,12.65
2019-05-19T13:07:35.466Z,8.23
2019-05-19T13:10:06.541Z,7.97
2019-05-19T13:12:35.251Z,8.30
2019-05-19T13:15:08.301Z,7.97
2019-05-19T13:17:37.183Z,7.22
2019-05-19T13:20:06.771Z,7.47
2019-05-19T13:22:35.365Z,7.40
2019-05-19T13:25:05.926Z,9.58
2019-05-19T13:27:34.658Z,9.58
2019-05-19T13:30:03.950Z,6.42
2019-05-19T13:32:32.638Z,5.78
2019-05-19T13:35:01.373Z,6.75
2019-05-19T13:37:29.961Z,6.33
2019-05-19T13:39:58.760Z,6.50
2019-05-19T13:42:30.427Z,5.55
2019-05-19T13:44:59.100Z,6.00
2019-05-19T13:47:27.758Z,8.48
2019-05-19T13:49:56.560Z,6.08
2019-05-19T13:52:25.348Z,5.20
2019-05-19T13:54:54.099Z,10.78
2019-05-19T13:57:22.864Z,10.15
2019-05-19T13:59:51.444Z,9.73
2019-05-19T14:02:20.176Z,6.97
2019-05-19T14:04:48.957Z,7.97
2019-05-19T14:07:17.751Z,7.80
2019-05-19T14:09:46.368Z,6.75
2019-05-19T14:12:15.164Z,7.25
2019-05-19T14:14:43.855Z,6.85
2019-05-19T14:17:12.591Z,8.20
2019-05-19T14:19:41.351Z,8.05
2019-05-19T14:22:10.033Z,7.87
2019-05-19T14:24:38.717Z,7.53
2019-05-19T14:27:07.503Z,10.00
2019-05-19T14:29:36.169Z,8.35
2019-05-19T14:32:04.909Z,7.67
2019-05-19T14:34:36.172Z,10.05
2019-05-19T14:37:08.055Z,10.15
2019-05-19T14:39:44.869Z,9.28
2019-05-19T14:42:15.232Z,9.33
2019-05-19T14:44:44.195Z,13.70
2019-05-19T14:47:13.994Z,10.65
2019-05-19T14:49:45.544Z,9.80
2019-05-19T14:52:13.111Z,9.58
2019-05-19T14:54:41.857Z,9.90
2019-05-19T14:57:10.500Z,9.35
2019-05-19T14:59:39.314Z,8.28
2019-05-19T15:02:08.109Z,11.95
2019-05-19T15:04:36.840Z,8.78
2019-05-19T15:07:05.681Z,8.75
2019-05-19T15:09:34.496Z,8.58
2019-05-19T15:12:03.349Z,10.40
2019-05-19T15:14:33.570Z,11.57
2019-05-19T15:17:02.383Z,16.17
2019-05-19T15:19:31.115Z,11.73
2019-05-19T15:22:00.496Z,11.25
2019-05-19T15:24:33.108Z,10.68
2019-05-19T15:27:04.253Z,11.93
2019-05-19T15:29:33.170Z,10.38
2019-05-19T15:32:02.108Z,10.13
2019-05-19T15:34:34.852Z,10.50
2019-05-19T15:37:03.756Z,9.35
2019-05-19T15:39:32.575Z,7.78
2019-05-19T15:42:01.341Z,8.18
2019-05-19T15:44:30.172Z,9.75
2019-05-19T15:47:00.629Z,8.43
2019-05-19T15:49:29.347Z,9.00
2019-05-19T15:52:02.847Z,7.80
2019-05-19T15:54:28.345Z,8.10
2019-05-19T15:56:57.151Z,11.43
2019-05-19T15:59:25.859Z,8.38
2019-05-19T16:01:54.675Z,9.95
2019-05-19T16:04:23.480Z,11.28
2019-05-19T16:06:52.230Z,8.78
2019-05-19T16:09:20.930Z,9.50
2019-05-19T16:11:54.780Z,7.97
2019-05-19T16:14:23.647Z,7.87
2019-05-19T16:16:52.498Z,7.87
2019-05-19T16:19:21.304Z,7.78
2019-05-19T16:21:51.570Z,9.33
2019-05-19T16:24:20.409Z,9.58
2019-05-19T16:26:49.318Z,8.55
2019-05-19T16:29:18.343Z,8.20
2019-05-19T16:31:47.041Z,8.55
2019-05-19T16:34:15.729Z,8.58
2019-05-19T16:36:44.513Z,9.50
2019-05-19T16:39:13.354Z,7.97
2019-05-19T16:41:41.963Z,7.95
2019-05-19T16:44:10.742Z,10.68
2019-05-19T16:46:39.450Z,9.05
2019-05-19T16:49:08.370Z,10.72
2019-05-19T16:51:37.121Z,9.03
2019-05-19T16:54:10.428Z,8.10
2019-05-19T16:56:39.298Z,9.03
2019-05-19T16:59:08.112Z,8.25
2019-05-19T17:01:36.922Z,10.88
2019-05-19T17:04:05.752Z,10.58
2019-05-19T17:06:34.520Z,9.60
2019-05-19T17:09:03.722Z,10.13
2019-05-19T17:11:32.690Z,9.85
2019-05-19T17:14:01.460Z,10.43
2019-05-19T17:16:30.183Z,12.18
2019-05-19T17:18:58.940Z,11.38
2019-05-19T17:21:27.844Z,9.40
2019-05-19T17:23:56.677Z,9.30
2019-05-19T17:26:25.483Z,9.58
2019-05-19T17:29:00.781Z,10.32
2019-05-19T17:31:24.709Z,10.03
2019-05-19T17:33:56.574Z,11.93
2019-05-19T17:36:27.388Z,10.63
2019-05-19T17:38:55.714Z,11.10
2019-05-19T17:41:24.471Z,11.48
2019-05-19T17:43:53.276Z,13.88
2019-05-19T17:46:22.067Z,13.00
2019-05-19T17:48:50.842Z,13.20
2019-05-19T17:51:19.737Z,11.50
2019-05-19T17:53:48.524Z,11.93
2019-05-19T17:56:17.537Z,14.47
2019-05-19T17:58:47.022Z,13.38
2019-05-19T18:01:15.873Z,16.48
2019-05-19T18:03:45.565Z,14.35
2019-05-19T18:06:15.296Z,13.08
2019-05-19T18:08:55.785Z,13.08
2019-05-19T18:11:24.374Z,17.12
2019-05-19T18:13:54.673Z,13.70
2019-05-19T18:16:23.502Z,13.53
2019-05-19T18:18:52.352Z,14.55
2019-05-19T18:21:21.015Z,13.80
2019-05-19T18:23:49.681Z,15.80
2019-05-19T18:26:18.553Z,13.65
2019-05-19T18:28:47.251Z,14.93
2019-05-19T18:31:16.083Z,15.78
2019-05-19T18:33:44.878Z,16.12
2019-05-19T18:36:13.668Z,15.18
2019-05-19T18:38:42.343Z,15.30
2019-05-19T18:41:11.155Z,16.10
2019-05-19T18:43:43.127Z,14.98
2019-05-19T18:46:16.454Z,18.30
2019-05-19T18:48:45.065Z,19.25
2019-05-19T18:51:14.019Z,18.98
2019-05-19T18:53:44.575Z,15.72
2019-05-19T18:56:13.387Z,16.62
2019-05-19T18:58:43.711Z,19.62
2019-05-19T19:01:12.615Z,16.42
2019-05-19T19:03:41.460Z,18.10
2019-05-19T19:06:27.638Z,20.43
2019-05-19T19:08:56.410Z,22.27
2019-05-19T19:11:25.479Z,17.67
2019-05-19T19:13:55.718Z,18.30
2019-05-19T19:16:24.419Z,17.75
2019-05-19T19:18:53.253Z,17.25
2019-05-19T19:21:26.525Z,17.75
2019-05-19T19:23:59.801Z,19.05
2019-05-19T19:26:28.708Z,19.87
2019-05-19T19:28:57.663Z,18.42
2019-05-19T19:31:26.336Z,20.45
2019-05-19T19:33:55.051Z,20.88
2019-05-19T19:36:27.053Z,24.12
2019-05-19T19:38:55.716Z,20.92
2019-05-19T19:41:24.401Z,20.75
2019-05-19T19:43:53.163Z,19.67
2019-05-19T19:46:21.821Z,19.95
2019-05-19T19:48:50.512Z,19.52
2019-05-19T19:51:19.275Z,21.00
2019-05-19T19:53:48.102Z,20.70
2019-05-19T19:56:16.884Z,22.02
2019-05-19T19:58:45.583Z,22.22
2019-05-19T20:01:14.834Z,22.13
2019-05-19T20:03:43.720Z,23.85
2019-05-19T20:06:12.579Z,24.43
2019-05-19T20:08:41.957Z,23.83
2019-05-19T20:11:10.990Z,22.48
2019-05-19T20:13:39.726Z,23.80
2019-05-19T20:16:08.639Z,22.32
2019-05-19T20:18:37.552Z,22.30
2019-05-19T20:21:06.342Z,21.17
2019-05-19T20:23:35.479Z,22.85
2019-05-19T20:26:04.463Z,22.55
2019-05-19T20:28:33.167Z,20.60
2019-05-19T20:31:02.461Z,21.55
2019-05-19T20:33:31.464Z,18.85
2019-05-19T20:36:00.926Z,19.90
2019-05-19T20:38:31.619Z,19.30
2019-05-19T20:41:02.255Z,20.82
2019-05-19T20:43:31.105Z,19.93
2019-05-19T20:45:59.907Z,18.13
2019-05-19T20:48:28.670Z,23.77
2019-05-19T20:50:57.411Z,19.17
2019-05-19T20:53:26.100Z,21.40
2019-05-19T20:55:54.891Z,19.80
2019-05-19T20:58:25.318Z,16.80
2019-05-19T21:00:54.124Z,18.60
2019-05-19T21:03:22.766Z,17.90
2019-05-19T21:05:51.484Z,21.23
2019-05-19T21:08:20.098Z,17.25
2019-05-19T21:10:48.958Z,18.45
2019-05-19T21:13:17.586Z,17.75
2019-05-19T21:15:46.452Z,16.35
2019-05-19T21:18:15.308Z,18.60
2019-05-19T21:20:44.295Z,19.13
2019-05-19T21:23:13.091Z,15.98
2019-05-19T21:25:41.702Z,15.80
2019-05-19T21:28:10.420Z,16.17
2019-05-19T21:30:39.219Z,14.75
2019-05-19T21:33:08.027Z,15.23
2019-05-19T21:35:36.688Z,13.83
2019-05-19T21:38:05.568Z,18.77
2019-05-19T21:40:34.362Z,14.83
2019-05-19T21:43:03.189Z,16.00
2019-05-19T21:45:32.039Z,15.40
2019-05-19T21:48:00.853Z,15.10
2019-05-19T21:50:29.613Z,15.08
2019-05-19T21:52:58.304Z,16.57
2019-05-19T21:55:27.123Z,14.47
2019-05-19T21:57:55.978Z,17.27
2019-05-19T22:00:26.513Z,13.35
2019-05-19T22:02:55.253Z,15.63
2019-05-19T22:05:24.096Z,13.57
2019-05-19T22:08:09.875Z,14.73
2019-05-19T22:10:38.528Z,14.27
2019-05-19T22:13:07.269Z,15.00
2019-05-19T22:15:35.943Z,15.33
2019-05-19T22:18:04.672Z,16.10
2019-05-19T22:20:33.492Z,16.57
2019-05-19T22:23:02.352Z,14.95
2019-05-19T22:25:31.094Z,14.25
2019-05-19T22:27:59.787Z,13.40
2019-05-19T22:30:28.566Z,14.78
2019-05-19T22:32:57.291Z,12.17
2019-05-19T22:35:26.098Z,16.77
2019-05-19T22:37:54.981Z,15.63
2019-05-19T22:40:26.143Z,12.97
2019-05-19T22:42:54.841Z,12.40
2019-05-19T22:45:23.640Z,13.80
2019-05-19T22:47:52.356Z,15.03
2019-05-19T22:50:21.062Z,13.83
2019-05-19T22:52:49.773Z,14.53
2019-05-19T22:55:18.549Z,16.40
2019-05-19T22:57:47.452Z,12.68
2019-05-19T23:00:18.287Z,30.40
2019-05-19T23:02:48.645Z,17.07
2019-05-19T23:05:18.815Z,20.00
2019-05-19T23:07:47.584Z,15.47
2019-05-19T23:10:18.346Z,18.73
2019-05-19T23:12:47.143Z,13.87
2019-05-19T23:15:16.964Z,16.57
2019-05-19T23:17:46.049Z,13.80
2019-05-19T23:20:16.437Z,20.52
2019-05-19T23:22:45.364Z,13.40
2019-05-19T23:25:14.315Z,16.07
2019-05-19T23:27:42.994Z,12.43
2019-05-19T23:30:12.323Z,13.23
2019-05-19T23:32:41.121Z,11.78
2019-05-19T23:35:10.070Z,12.03
2019-05-19T23:37:38.691Z,11.47
2019-05-19T23:40:07.945Z,12.23
2019-05-19T23:42:36.768Z,15.73
2019-05-19T23:45:07.385Z,14.17
2019-05-19T23:47:36.295Z,15.13
2019-05-19T23:50:06.672Z,18.10
2019-05-19T23:52:35.335Z,15.33
2019-05-19T23:55:05.841Z,12.10
2019-05-19T23:57:34.628Z,14.87
